sensor_id;sensor_type;location;lat;lon;timestamp;pressure;altitude;pressure_sealevel;temperature;humidity
29467;BME280;60968;37.490;-122.288;2023-02-13T00:00:36;98550.69;;;16.57;38.04
29467;BME280;60968;37.490;-122.288;2023-02-13T00:03:38;98543.19;;;16.48;37.97
29467;BME280;60968;37.490;-122.288;2023-02-13T00:06:40;98540.97;;;16.38;38.79
29467;BME280;60968;37.490;-122.288;2023-02-13T00:09:41;98542.31;;;16.28;38.20
29467;BME280;60968;37.490;-122.288;2023-02-13T00:12:42;98547.06;;;16.20;38.31
29467;BME280;60968;37.490;-122.288;2023-02-13T00:15:43;98541.38;;;16.10;38.39
29467;BME280;60968;37.490;-122.288;2023-02-13T00:18:44;98546.91;;;16.04;38.29
29467;BME280;60968;37.490;-122.288;2023-02-13T00:21:45;98551.50;;;15.99;37.41
29467;BME280;60968;37.490;-122.288;2023-02-13T00:24:46;98551.03;;;15.89;39.44
29467;BME280;60968;37.490;-122.288;2023-02-13T00:27:47;98541.66;;;15.83;39.47
29467;BME280;60968;37.490;-122.288;2023-02-13T00:30:49;98543.31;;;15.64;40.39
29467;BME280;60968;37.490;-122.288;2023-02-13T00:33:50;98540.44;;;15.49;41.07
29467;BME280;60968;37.490;-122.288;2023-02-13T00:36:51;98540.09;;;15.36;42.16
29467;BME280;60968;37.490;-122.288;2023-02-13T00:39:52;98542.38;;;15.23;41.41
29467;BME280;60968;37.490;-122.288;2023-02-13T00:42:53;98538.34;;;15.15;40.84
29467;BME280;60968;37.490;-122.288;2023-02-13T00:45:55;98544.03;;;15.04;43.02
29467;BME280;60968;37.490;-122.288;2023-02-13T00:48:55;98540.91;;;14.94;42.51
29467;BME280;60968;37.490;-122.288;2023-02-13T00:51:56;98535.09;;;14.86;42.31
29467;BME280;60968;37.490;-122.288;2023-02-13T00:54:57;98541.63;;;14.75;42.95
29467;BME280;60968;37.490;-122.288;2023-02-13T00:57:58;98535.00;;;14.65;43.63
29467;BME280;60968;37.490;-122.288;2023-02-13T01:01:00;98541.75;;;14.49;44.83
29467;BME280;60968;37.490;-122.288;2023-02-13T01:04:00;98545.53;;;14.40;44.47
29467;BME280;60968;37.490;-122.288;2023-02-13T01:07:01;98539.84;;;14.29;46.02
29467;BME280;60968;37.490;-122.288;2023-02-13T01:10:02;98539.38;;;14.17;46.85
29467;BME280;60968;37.490;-122.288;2023-02-13T01:13:05;98524.59;;;14.16;47.31
29467;BME280;60968;37.490;-122.288;2023-02-13T01:16:07;98532.72;;;14.09;48.47
29467;BME280;60968;37.490;-122.288;2023-02-13T01:19:08;98534.88;;;13.97;48.66
29467;BME280;60968;37.490;-122.288;2023-02-13T01:22:10;98530.81;;;13.88;49.19
29467;BME280;60968;37.490;-122.288;2023-02-13T01:25:11;98526.84;;;13.77;50.54
29467;BME280;60968;37.490;-122.288;2023-02-13T01:28:13;98534.16;;;13.67;51.04
29467;BME280;60968;37.490;-122.288;2023-02-13T01:31:14;98537.00;;;13.61;52.11
29467;BME280;60968;37.490;-122.288;2023-02-13T01:34:15;98536.28;;;13.55;53.16
29467;BME280;60968;37.490;-122.288;2023-02-13T01:37:16;98530.38;;;13.50;51.51
29467;BME280;60968;37.490;-122.288;2023-02-13T01:40:17;98528.72;;;13.48;52.26
29467;BME280;60968;37.490;-122.288;2023-02-13T01:43:18;98528.88;;;13.43;52.67
29467;BME280;60968;37.490;-122.288;2023-02-13T01:49:30;98519.72;;;13.28;52.65
29467;BME280;60968;37.490;-122.288;2023-02-13T01:52:32;98517.28;;;13.24;50.10
29467;BME280;60968;37.490;-122.288;2023-02-13T01:55:39;98515.66;;;13.19;49.90
29467;BME280;60968;37.490;-122.288;2023-02-13T01:58:46;98515.78;;;13.16;50.44
29467;BME280;60968;37.490;-122.288;2023-02-13T02:01:49;98524.66;;;13.11;50.59
29467;BME280;60968;37.490;-122.288;2023-02-13T02:04:51;98523.19;;;13.02;50.70
29467;BME280;60968;37.490;-122.288;2023-02-13T02:07:54;98532.13;;;12.95;49.42
29467;BME280;60968;37.490;-122.288;2023-02-13T02:10:59;98530.63;;;12.87;47.92
29467;BME280;60968;37.490;-122.288;2023-02-13T02:14:03;98525.50;;;12.84;45.79
29467;BME280;60968;37.490;-122.288;2023-02-13T02:17:03;98525.75;;;12.75;45.28
29467;BME280;60968;37.490;-122.288;2023-02-13T02:51:21;98525.34;;;12.31;40.23
29467;BME280;60968;37.490;-122.288;2023-02-13T02:57:38;98530.34;;;12.39;38.48
29467;BME280;60968;37.490;-122.288;2023-02-13T03:00:44;98533.44;;;12.51;37.91
29467;BME280;60968;37.490;-122.288;2023-02-13T03:03:46;98525.53;;;12.55;38.05
29467;BME280;60968;37.490;-122.288;2023-02-13T03:07:01;98527.16;;;12.57;36.99
29467;BME280;60968;37.490;-122.288;2023-02-13T03:10:09;98525.53;;;12.53;37.72
29467;BME280;60968;37.490;-122.288;2023-02-13T03:13:30;98524.91;;;12.46;38.25
29467;BME280;60968;37.490;-122.288;2023-02-13T03:16:34;98527.66;;;12.40;38.26
29467;BME280;60968;37.490;-122.288;2023-02-13T03:19:57;98522.69;;;12.32;37.29
29467;BME280;60968;37.490;-122.288;2023-02-13T03:23:26;98524.72;;;12.23;38.90
29467;BME280;60968;37.490;-122.288;2023-02-13T03:26:41;98521.16;;;12.25;37.42
29467;BME280;60968;37.490;-122.288;2023-02-13T03:30:02;98519.97;;;12.35;37.18
29467;BME280;60968;37.490;-122.288;2023-02-13T03:45:59;98523.28;;;12.42;36.40
29467;BME280;60968;37.490;-122.288;2023-02-13T03:49:06;98517.16;;;12.43;35.72
29467;BME280;60968;37.490;-122.288;2023-02-13T03:55:31;98520.38;;;12.51;36.98
29467;BME280;60968;37.490;-122.288;2023-02-13T03:58:41;98508.19;;;12.52;36.61
29467;BME280;60968;37.490;-122.288;2023-02-13T04:01:48;98506.34;;;12.54;37.22
29467;BME280;60968;37.490;-122.288;2023-02-13T04:05:12;98501.81;;;12.61;36.87
29467;BME280;60968;37.490;-122.288;2023-02-13T04:08:15;98511.47;;;12.59;36.73
29467;BME280;60968;37.490;-122.288;2023-02-13T04:11:38;98510.53;;;12.60;36.55
29467;BME280;60968;37.490;-122.288;2023-02-13T04:21:04;98519.13;;;12.65;38.87
29467;BME280;60968;37.490;-122.288;2023-02-13T04:24:06;98512.47;;;12.53;40.06
29467;BME280;60968;37.490;-122.288;2023-02-13T04:27:11;98510.56;;;12.30;41.64
29467;BME280;60968;37.490;-122.288;2023-02-13T04:30:15;98509.38;;;12.10;41.59
29467;BME280;60968;37.490;-122.288;2023-02-13T04:33:16;98507.09;;;11.98;40.58
29467;BME280;60968;37.490;-122.288;2023-02-13T04:36:18;98504.53;;;11.96;41.59
29467;BME280;60968;37.490;-122.288;2023-02-13T04:39:18;98507.19;;;11.95;41.53
29467;BME280;60968;37.490;-122.288;2023-02-13T04:42:19;98512.81;;;11.79;43.33
29467;BME280;60968;37.490;-122.288;2023-02-13T04:45:20;98508.25;;;11.55;43.41
29467;BME280;60968;37.490;-122.288;2023-02-13T04:48:22;98515.72;;;11.34;43.51
29467;BME280;60968;37.490;-122.288;2023-02-13T04:51:23;98517.59;;;11.29;45.32
29467;BME280;60968;37.490;-122.288;2023-02-13T04:54:24;98512.78;;;11.12;46.78
29467;BME280;60968;37.490;-122.288;2023-02-13T04:57:25;98523.53;;;10.98;48.07
29467;BME280;60968;37.490;-122.288;2023-02-13T05:00:27;98524.59;;;10.91;47.82
29467;BME280;60968;37.490;-122.288;2023-02-13T05:03:28;98526.47;;;10.84;49.28
29467;BME280;60968;37.490;-122.288;2023-02-13T05:06:30;98526.78;;;10.72;51.27
29467;BME280;60968;37.490;-122.288;2023-02-13T05:09:32;98522.59;;;10.63;54.43
29467;BME280;60968;37.490;-122.288;2023-02-13T05:12:33;98528.88;;;10.54;58.02
29467;BME280;60968;37.490;-122.288;2023-02-13T05:15:34;98513.34;;;10.50;60.73
29467;BME280;60968;37.490;-122.288;2023-02-13T05:18:35;98511.88;;;10.36;62.78
29467;BME280;60968;37.490;-122.288;2023-02-13T05:21:36;98510.59;;;10.13;64.99
29467;BME280;60968;37.490;-122.288;2023-02-13T05:24:36;98513.72;;;9.87;68.69
29467;BME280;60968;37.490;-122.288;2023-02-13T05:27:37;98507.13;;;9.69;70.60
29467;BME280;60968;37.490;-122.288;2023-02-13T05:30:38;98507.28;;;9.60;71.86
29467;BME280;60968;37.490;-122.288;2023-02-13T05:33:39;98509.09;;;9.55;72.54
29467;BME280;60968;37.490;-122.288;2023-02-13T05:36:40;98497.03;;;9.52;74.66
29467;BME280;60968;37.490;-122.288;2023-02-13T05:39:41;98485.72;;;9.53;73.13
29467;BME280;60968;37.490;-122.288;2023-02-13T05:42:42;98487.03;;;9.77;70.76
29467;BME280;60968;37.490;-122.288;2023-02-13T05:45:43;98499.22;;;9.74;69.02
29467;BME280;60968;37.490;-122.288;2023-02-13T05:48:44;98490.72;;;9.64;69.66
29467;BME280;60968;37.490;-122.288;2023-02-13T05:51:45;98486.41;;;9.63;71.60
29467;BME280;60968;37.490;-122.288;2023-02-13T05:54:47;98498.66;;;9.58;70.42
29467;BME280;60968;37.490;-122.288;2023-02-13T05:57:48;98494.47;;;9.51;72.15
29467;BME280;60968;37.490;-122.288;2023-02-13T06:00:55;98488.47;;;9.46;71.68
29467;BME280;60968;37.490;-122.288;2023-02-13T06:03:56;98495.50;;;9.40;69.54
29467;BME280;60968;37.490;-122.288;2023-02-13T06:06:57;98497.25;;;9.40;67.77
29467;BME280;60968;37.490;-122.288;2023-02-13T06:09:58;98490.34;;;9.37;67.27
29467;BME280;60968;37.490;-122.288;2023-02-13T06:12:58;98490.34;;;9.37;66.81
29467;BME280;60968;37.490;-122.288;2023-02-13T06:15:59;98488.56;;;9.39;67.85
29467;BME280;60968;37.490;-122.288;2023-02-13T06:19:00;98498.16;;;9.37;67.89
29467;BME280;60968;37.490;-122.288;2023-02-13T06:22:02;98499.97;;;9.32;69.14
29467;BME280;60968;37.490;-122.288;2023-02-13T06:25:05;98491.41;;;9.27;71.21
29467;BME280;60968;37.490;-122.288;2023-02-13T06:28:06;98496.75;;;9.18;74.70
29467;BME280;60968;37.490;-122.288;2023-02-13T06:31:07;98494.16;;;9.18;78.91
29467;BME280;60968;37.490;-122.288;2023-02-13T06:34:08;98496.75;;;9.18;80.71
29467;BME280;60968;37.490;-122.288;2023-02-13T06:37:08;98490.69;;;9.19;81.15
29467;BME280;60968;37.490;-122.288;2023-02-13T06:40:12;98491.50;;;9.21;82.49
29467;BME280;60968;37.490;-122.288;2023-02-13T06:43:15;98483.75;;;9.18;82.50
29467;BME280;60968;37.490;-122.288;2023-02-13T06:46:19;98481.28;;;9.12;82.39
29467;BME280;60968;37.490;-122.288;2023-02-13T06:49:20;98477.81;;;9.09;84.54
29467;BME280;60968;37.490;-122.288;2023-02-13T06:52:20;98480.44;;;9.08;86.02
29467;BME280;60968;37.490;-122.288;2023-02-13T06:55:23;98483.16;;;9.02;87.16
29467;BME280;60968;37.490;-122.288;2023-02-13T06:58:24;98478.03;;;8.96;86.67
29467;BME280;60968;37.490;-122.288;2023-02-13T07:01:25;98475.47;;;8.94;88.35
29467;BME280;60968;37.490;-122.288;2023-02-13T07:04:27;98466.91;;;8.89;88.66
29467;BME280;60968;37.490;-122.288;2023-02-13T07:07:33;98475.72;;;8.79;89.15
29467;BME280;60968;37.490;-122.288;2023-02-13T07:10:40;98463.72;;;8.71;88.78
29467;BME280;60968;37.490;-122.288;2023-02-13T07:13:41;98467.28;;;8.64;87.77
29467;BME280;60968;37.490;-122.288;2023-02-13T07:16:42;98470.00;;;8.56;88.62
29467;BME280;60968;37.490;-122.288;2023-02-13T07:19:43;98467.47;;;8.50;87.17
29467;BME280;60968;37.490;-122.288;2023-02-13T07:22:44;98464.09;;;8.47;86.40
29467;BME280;60968;37.490;-122.288;2023-02-13T07:25:45;98454.56;;;8.46;85.47
29467;BME280;60968;37.490;-122.288;2023-02-13T07:28:48;98451.97;;;8.46;83.65
29467;BME280;60968;37.490;-122.288;2023-02-13T07:31:51;98445.97;;;8.40;83.69
29467;BME280;60968;37.490;-122.288;2023-02-13T07:34:52;98451.16;;;8.40;83.54
29467;BME280;60968;37.490;-122.288;2023-02-13T07:37:53;98448.56;;;8.40;82.84
29467;BME280;60968;37.490;-122.288;2023-02-13T07:40:54;98443.34;;;8.42;82.95
29467;BME280;60968;37.490;-122.288;2023-02-13T07:43:57;98452.84;;;8.43;82.54
29467;BME280;60968;37.490;-122.288;2023-02-13T07:46:58;98461.47;;;8.48;82.01
29467;BME280;60968;37.490;-122.288;2023-02-13T07:49:59;98460.53;;;8.51;77.84
29467;BME280;60968;37.490;-122.288;2023-02-13T07:53:01;98456.69;;;8.78;69.94
29467;BME280;60968;37.490;-122.288;2023-02-13T07:56:06;98458.97;;;8.97;68.56
29467;BME280;60968;37.490;-122.288;2023-02-13T07:59:07;98449.44;;;8.97;68.31
29467;BME280;60968;37.490;-122.288;2023-02-13T08:02:12;98448.56;;;8.98;68.56
29467;BME280;60968;37.490;-122.288;2023-02-13T08:05:13;98435.84;;;8.81;70.80
29467;BME280;60968;37.490;-122.288;2023-02-13T08:08:15;98429.13;;;8.69;70.80
29467;BME280;60968;37.490;-122.288;2023-02-13T08:11:24;98434.56;;;8.54;72.04
29467;BME280;60968;37.490;-122.288;2023-02-13T08:14:26;98437.25;;;8.43;73.73
29467;BME280;60968;37.490;-122.288;2023-02-13T08:17:27;98426.88;;;8.43;74.79
29467;BME280;60968;37.490;-122.288;2023-02-13T08:20:29;98421.72;;;8.41;74.41
29467;BME280;60968;37.490;-122.288;2023-02-13T08:23:30;98421.63;;;8.49;72.45
29467;BME280;60968;37.490;-122.288;2023-02-13T08:26:32;98416.28;;;8.58;71.01
29467;BME280;60968;37.490;-122.288;2023-02-13T08:29:35;98416.19;;;8.65;70.63
29467;BME280;60968;37.490;-122.288;2023-02-13T08:32:36;98420.34;;;8.77;69.45
29467;BME280;60968;37.490;-122.288;2023-02-13T08:35:38;98413.19;;;8.89;68.05
29467;BME280;60968;37.490;-122.288;2023-02-13T08:38:39;98415.44;;;9.09;62.36
29467;BME280;60968;37.490;-122.288;2023-02-13T08:41:39;98408.31;;;9.21;62.24
29467;BME280;60968;37.490;-122.288;2023-02-13T08:44:40;98411.09;;;9.12;64.89
29467;BME280;60968;37.490;-122.288;2023-02-13T08:47:43;98402.66;;;8.99;65.88
29467;BME280;60968;37.490;-122.288;2023-02-13T08:50:45;98396.88;;;8.81;68.03
29467;BME280;60968;37.490;-122.288;2023-02-13T08:53:46;98399.69;;;8.67;68.66
29467;BME280;60968;37.490;-122.288;2023-02-13T08:56:47;98399.03;;;8.54;70.28
29467;BME280;60968;37.490;-122.288;2023-02-13T08:59:48;98393.03;;;8.51;70.33
29467;BME280;60968;37.490;-122.288;2023-02-13T09:02:58;98384.16;;;8.66;70.45
29467;BME280;60968;37.490;-122.288;2023-02-13T09:06:02;98377.75;;;8.85;67.97
29467;BME280;60968;37.490;-122.288;2023-02-13T09:09:05;98369.72;;;8.99;67.73
29467;BME280;60968;37.490;-122.288;2023-02-13T09:12:07;98366.00;;;9.14;66.50
29467;BME280;60968;37.490;-122.288;2023-02-13T09:15:08;98369.94;;;9.34;65.55
29467;BME280;60968;37.490;-122.288;2023-02-13T09:18:10;98366.91;;;9.57;64.60
29467;BME280;60968;37.490;-122.288;2023-02-13T09:21:11;98379.44;;;9.78;64.80
29467;BME280;60968;37.490;-122.288;2023-02-13T09:24:12;98389.78;;;9.83;64.82
29467;BME280;60968;37.490;-122.288;2023-02-13T09:27:13;98393.34;;;9.79;65.49
29467;BME280;60968;37.490;-122.288;2023-02-13T09:30:14;98391.09;;;9.62;66.90
29467;BME280;60968;37.490;-122.288;2023-02-13T09:33:16;98386.84;;;9.56;66.32
29467;BME280;60968;37.490;-122.288;2023-02-13T09:36:20;98390.44;;;9.51;69.21
29467;BME280;60968;37.490;-122.288;2023-02-13T09:39:22;98389.63;;;9.47;69.14
29467;BME280;60968;37.490;-122.288;2023-02-13T09:42:29;98387.22;;;9.36;70.76
29467;BME280;60968;37.490;-122.288;2023-02-13T09:45:31;98402.13;;;9.28;72.20
29467;BME280;60968;37.490;-122.288;2023-02-13T09:48:36;98405.69;;;9.22;73.38
29467;BME280;60968;37.490;-122.288;2023-02-13T09:51:37;98409.25;;;9.17;72.91
29467;BME280;60968;37.490;-122.288;2023-02-13T09:54:39;98403.91;;;9.26;72.25
29467;BME280;60968;37.490;-122.288;2023-02-13T09:58:02;98397.84;;;9.25;74.30
29467;BME280;60968;37.490;-122.288;2023-02-13T10:17:49;98379.53;;;8.83;76.70
29467;BME280;60968;37.490;-122.288;2023-02-13T10:20:56;98374.31;;;8.85;76.30
29467;BME280;60968;37.490;-122.288;2023-02-13T10:24:09;98364.47;;;9.02;74.73
29467;BME280;60968;37.490;-122.288;2023-02-13T10:30:30;98370.31;;;9.59;69.90
29467;BME280;60968;37.490;-122.288;2023-02-13T10:33:40;98360.03;;;9.53;70.58
29467;BME280;60968;37.490;-122.288;2023-02-13T10:36:45;98351.44;;;9.49;71.35
29467;BME280;60968;37.490;-122.288;2023-02-13T10:39:51;98348.91;;;9.46;71.55
29467;BME280;60968;37.490;-122.288;2023-02-13T10:42:57;98347.66;;;9.64;69.68
29467;BME280;60968;37.490;-122.288;2023-02-13T11:03:19;98330.94;;;9.77;68.43
29467;BME280;60968;37.490;-122.288;2023-02-13T11:06:21;98331.81;;;9.76;65.90
29467;BME280;60968;37.490;-122.288;2023-02-13T11:09:22;98341.19;;;9.84;64.59
29467;BME280;60968;37.490;-122.288;2023-02-13T11:12:28;98337.84;;;9.77;65.01
29467;BME280;60968;37.490;-122.288;2023-02-13T11:15:31;98335.59;;;9.61;66.44
29467;BME280;60968;37.490;-122.288;2023-02-13T11:18:39;98334.84;;;9.56;66.50
29467;BME280;60968;37.490;-122.288;2023-02-13T11:21:40;98333.19;;;9.52;66.03
29467;BME280;60968;37.490;-122.288;2023-02-13T11:24:51;98334.09;;;9.50;66.87
29467;BME280;60968;37.490;-122.288;2023-02-13T11:28:07;98326.13;;;9.57;64.78
29467;BME280;60968;37.490;-122.288;2023-02-13T11:34:24;98322.47;;;9.68;62.98
29467;BME280;60968;37.490;-122.288;2023-02-13T11:37:30;98330.41;;;9.60;64.68
29467;BME280;60968;37.490;-122.288;2023-02-13T11:40:30;98331.50;;;9.50;64.67
29467;BME280;60968;37.490;-122.288;2023-02-13T11:43:43;98322.03;;;9.47;65.08
29467;BME280;60968;37.490;-122.288;2023-02-13T11:46:49;98325.34;;;9.54;63.80
29467;BME280;60968;37.490;-122.288;2023-02-13T11:49:52;98333.75;;;9.67;61.83
29467;BME280;60968;37.490;-122.288;2023-02-13T11:52:58;98328.41;;;9.73;64.46
29467;BME280;60968;37.490;-122.288;2023-02-13T11:56:08;98329.44;;;9.66;66.84
29467;BME280;60968;37.490;-122.288;2023-02-13T11:59:12;98336.72;;;9.50;69.09
29467;BME280;60968;37.490;-122.288;2023-02-13T12:02:22;98333.69;;;9.27;71.40
29467;BME280;60968;37.490;-122.288;2023-02-13T12:05:26;98317.69;;;9.02;72.67
29467;BME280;60968;37.490;-122.288;2023-02-13T12:08:28;98317.28;;;8.77;76.46
29467;BME280;60968;37.490;-122.288;2023-02-13T12:11:41;98327.25;;;8.52;78.14
29467;BME280;60968;37.490;-122.288;2023-02-13T12:14:44;98322.34;;;8.33;79.97
29467;BME280;60968;37.490;-122.288;2023-02-13T12:18:02;98326.72;;;8.28;78.89
29467;BME280;60968;37.490;-122.288;2023-02-13T12:21:35;98326.66;;;8.34;77.15
29467;BME280;60968;37.490;-122.288;2023-02-13T12:24:53;98338.72;;;8.35;77.98
29467;BME280;60968;37.490;-122.288;2023-02-13T12:41:21;98350.13;;;7.66;89.84
29467;BME280;60968;37.490;-122.288;2023-02-13T12:51:54;98348.84;;;7.28;100.00
29467;BME280;60968;37.490;-122.288;2023-02-13T12:55:30;98352.44;;;7.17;100.00
29467;BME280;60968;37.490;-122.288;2023-02-13T13:22:27;98362.44;;;7.48;100.00
29467;BME280;60968;37.490;-122.288;2023-02-13T13:25:32;98358.19;;;7.41;100.00
29467;BME280;60968;37.490;-122.288;2023-02-13T13:28:39;98357.56;;;7.22;100.00
29467;BME280;60968;37.490;-122.288;2023-02-13T13:32:01;98361.16;;;7.10;100.00
29467;BME280;60968;37.490;-122.288;2023-02-13T13:35:03;98362.19;;;6.89;100.00
29467;BME280;60968;37.490;-122.288;2023-02-13T13:38:20;98360.53;;;6.85;100.00
29467;BME280;60968;37.490;-122.288;2023-02-13T13:50:48;98350.16;;;6.86;100.00
29467;BME280;60968;37.490;-122.288;2023-02-13T13:57:08;98351.91;;;6.81;100.00
29467;BME280;60968;37.490;-122.288;2023-02-13T14:03:32;98355.50;;;6.66;100.00
29467;BME280;60968;37.490;-122.288;2023-02-13T14:09:43;98343.34;;;6.73;100.00
29467;BME280;60968;37.490;-122.288;2023-02-13T14:12:47;98346.81;;;6.75;100.00
29467;BME280;60968;37.490;-122.288;2023-02-13T14:15:52;98349.47;;;6.66;100.00
29467;BME280;60968;37.490;-122.288;2023-02-13T14:18:53;98353.81;;;6.65;100.00
29467;BME280;60968;37.490;-122.288;2023-02-13T14:21:55;98350.28;;;6.73;100.00
29467;BME280;60968;37.490;-122.288;2023-02-13T14:25:25;98366.66;;;6.73;100.00
29467;BME280;60968;37.490;-122.288;2023-02-13T14:28:26;98365.72;;;6.82;100.00
29467;BME280;60968;37.490;-122.288;2023-02-13T14:31:37;98359.47;;;7.01;100.00
29467;BME280;60968;37.490;-122.288;2023-02-13T14:34:39;98372.03;;;7.40;93.35
29467;BME280;60968;37.490;-122.288;2023-02-13T14:37:53;98375.06;;;7.75;91.08
29467;BME280;60968;37.490;-122.288;2023-02-13T14:40:54;98377.47;;;7.88;89.17
29467;BME280;60968;37.490;-122.288;2023-02-13T14:43:56;98387.00;;;7.88;89.20
29467;BME280;60968;37.490;-122.288;2023-02-13T14:47:02;98371.50;;;7.82;90.28
29467;BME280;60968;37.490;-122.288;2023-02-13T14:50:06;98376.94;;;7.63;93.57
29467;BME280;60968;37.490;-122.288;2023-02-13T14:53:19;98385.88;;;7.37;97.08
29467;BME280;60968;37.490;-122.288;2023-02-13T14:56:21;98381.78;;;7.18;100.00
29467;BME280;60968;37.490;-122.288;2023-02-13T14:59:29;98382.81;;;7.00;100.00
29467;BME280;60968;37.490;-122.288;2023-02-13T15:02:36;98394.13;;;6.91;100.00
29467;BME280;60968;37.490;-122.288;2023-02-13T15:05:50;98406.19;;;6.95;100.00
29467;BME280;60968;37.490;-122.288;2023-02-13T15:08:52;98400.16;;;6.95;100.00
29467;BME280;60968;37.490;-122.288;2023-02-13T15:11:53;98406.22;;;6.92;100.00
29467;BME280;60968;37.490;-122.288;2023-02-13T15:14:54;98406.13;;;7.00;100.00
29467;BME280;60968;37.490;-122.288;2023-02-13T15:18:00;98406.97;;;7.03;100.00
29467;BME280;60968;37.490;-122.288;2023-02-13T15:21:02;98399.88;;;7.19;100.00
29467;BME280;60968;37.490;-122.288;2023-02-13T15:24:03;98410.97;;;7.32;100.00
29467;BME280;60968;37.490;-122.288;2023-02-13T15:27:06;98410.94;;;7.38;100.00
29467;BME280;60968;37.490;-122.288;2023-02-13T15:30:21;98415.06;;;7.53;100.00
29467;BME280;60968;37.490;-122.288;2023-02-13T15:33:25;98420.06;;;7.70;100.00
29467;BME280;60968;37.490;-122.288;2023-02-13T15:36:35;98438.97;;;7.79;100.00
29467;BME280;60968;37.490;-122.288;2023-02-13T15:39:39;98440.63;;;7.86;100.00
29467;BME280;60968;37.490;-122.288;2023-02-13T15:42:40;98437.88;;;7.98;100.00
29467;BME280;60968;37.490;-122.288;2023-02-13T15:45:42;98445.50;;;8.11;100.00
29467;BME280;60968;37.490;-122.288;2023-02-13T15:48:44;98452.22;;;8.24;100.00
29467;BME280;60968;37.490;-122.288;2023-02-13T15:51:47;98452.94;;;8.37;100.00
29467;BME280;60968;37.490;-122.288;2023-02-13T15:54:50;98446.72;;;8.50;100.00
29467;BME280;60968;37.490;-122.288;2023-02-13T15:57:54;98455.28;;;8.57;100.00
29467;BME280;60968;37.490;-122.288;2023-02-13T16:01:02;98451.56;;;8.73;100.00
29467;BME280;60968;37.490;-122.288;2023-02-13T16:04:07;98458.25;;;8.88;100.00
29467;BME280;60968;37.490;-122.288;2023-02-13T16:07:11;98468.63;;;8.88;100.00
29467;BME280;60968;37.490;-122.288;2023-02-13T16:10:22;98464.31;;;8.87;100.00
29467;BME280;60968;37.490;-122.288;2023-02-13T16:13:25;98458.94;;;8.98;100.00
29467;BME280;60968;37.490;-122.288;2023-02-13T16:16:28;98459.63;;;9.09;100.00
29467;BME280;60968;37.490;-122.288;2023-02-13T16:19:53;98458.44;;;9.29;100.00
29467;BME280;60968;37.490;-122.288;2023-02-13T16:23:12;98464.28;;;9.40;100.00
29467;BME280;60968;37.490;-122.288;2023-02-13T16:26:15;98459.72;;;9.53;100.00
29467;BME280;60968;37.490;-122.288;2023-02-13T16:29:22;98454.81;;;9.82;100.00
29467;BME280;60968;37.490;-122.288;2023-02-13T16:32:30;98438.22;;;9.89;100.00
29467;BME280;60968;37.490;-122.288;2023-02-13T16:35:35;98438.44;;;9.78;100.00
29467;BME280;60968;37.490;-122.288;2023-02-13T16:42:14;98430.59;;;9.79;100.00
29467;BME280;60968;37.490;-122.288;2023-02-13T16:45:25;98433.88;;;9.89;100.00
29467;BME280;60968;37.490;-122.288;2023-02-13T16:48:26;98446.78;;;9.94;100.00
29467;BME280;60968;37.490;-122.288;2023-02-13T16:54:58;98446.97;;;11.02;100.00
29467;BME280;60968;37.490;-122.288;2023-02-13T16:58:04;98443.81;;;14.50;81.67
29467;BME280;60968;37.490;-122.288;2023-02-13T17:01:05;98442.50;;;18.37;66.44
29467;BME280;60968;37.490;-122.288;2023-02-13T17:04:25;98428.16;;;21.05;53.81
29467;BME280;60968;37.490;-122.288;2023-02-13T17:07:29;98430.44;;;21.37;48.28
29467;BME280;60968;37.490;-122.288;2023-02-13T17:10:34;98419.06;;;21.62;46.83
29467;BME280;60968;37.490;-122.288;2023-02-13T17:13:35;98424.13;;;20.30;48.57
29467;BME280;60968;37.490;-122.288;2023-02-13T17:16:36;98418.81;;;22.04;45.70
29467;BME280;60968;37.490;-122.288;2023-02-13T17:19:39;98431.63;;;23.08;42.97
29467;BME280;60968;37.490;-122.288;2023-02-13T17:22:42;98426.69;;;23.51;41.70
29467;BME280;60968;37.490;-122.288;2023-02-13T17:25:44;98428.75;;;25.04;38.53
29467;BME280;60968;37.490;-122.288;2023-02-13T17:28:45;98437.78;;;25.13;37.51
29467;BME280;60968;37.490;-122.288;2023-02-13T17:31:49;98437.22;;;25.09;37.87
29467;BME280;60968;37.490;-122.288;2023-02-13T17:34:53;98442.03;;;25.15;37.15
29467;BME280;60968;37.490;-122.288;2023-02-13T17:37:54;98444.31;;;24.88;36.26
29467;BME280;60968;37.490;-122.288;2023-02-13T17:40:55;98439.63;;;24.80;36.42
29467;BME280;60968;37.490;-122.288;2023-02-13T17:43:56;98443.56;;;24.97;36.51
29467;BME280;60968;37.490;-122.288;2023-02-13T17:46:56;98443.88;;;24.82;36.41
29467;BME280;60968;37.490;-122.288;2023-02-13T17:49:57;98444.50;;;23.26;38.76
29467;BME280;60968;37.490;-122.288;2023-02-13T17:53:03;98435.41;;;20.88;44.23
29467;BME280;60968;37.490;-122.288;2023-02-13T17:56:05;98453.16;;;18.67;49.88
29467;BME280;60968;37.490;-122.288;2023-02-13T17:59:06;98457.47;;;17.36;53.93
29467;BME280;60968;37.490;-122.288;2023-02-13T18:02:16;98461.78;;;16.83;57.62
29467;BME280;60968;37.490;-122.288;2023-02-13T18:05:18;98479.41;;;16.80;58.99
29467;BME280;60968;37.490;-122.288;2023-02-13T18:08:20;98478.16;;;16.70;59.21
29467;BME280;60968;37.490;-122.288;2023-02-13T18:11:20;98483.16;;;16.57;60.21
29467;BME280;60968;37.490;-122.288;2023-02-13T18:14:21;98486.91;;;16.90;60.49
29467;BME280;60968;37.490;-122.288;2023-02-13T18:17:23;98480.88;;;16.31;62.98
29467;BME280;60968;37.490;-122.288;2023-02-13T18:20:24;98487.56;;;16.38;64.98
29467;BME280;60968;37.490;-122.288;2023-02-13T18:23:25;98486.06;;;16.51;64.87
29467;BME280;60968;37.490;-122.288;2023-02-13T18:26:27;98472.19;;;16.67;65.43
29467;BME280;60968;37.490;-122.288;2023-02-13T18:29:28;98472.06;;;16.32;66.69
29467;BME280;60968;37.490;-122.288;2023-02-13T18:32:30;98465.53;;;16.40;66.93
29467;BME280;60968;37.490;-122.288;2023-02-13T18:35:32;98459.97;;;16.46;66.80